sensor_id;sensor_type;location;lat;lon;timestamp;temperature;humidity
51305;HTU21D;37392;50.964;6.952;2023-06-19T00:02:20;22.10;76.82
51305;HTU21D;37392;50.964;6.952;2023-06-19T00:04:46;22.03;76.76
51305;HTU21D;37392;50.964;6.952;2023-06-19T00:07:11;22.03;76.88
51305;HTU21D;37392;50.964;6.952;2023-06-19T00:09:37;21.99;77.09
51305;HTU21D;37392;50.964;6.952;2023-06-19T00:12:02;21.88;77.36
51305;HTU21D;37392;50.964;6.952;2023-06-19T00:14:29;21.81;77.66
51305;HTU21D;37392;50.964;6.952;2023-06-19T00:16:55;21.79;77.76
51305;HTU21D;37392;50.964;6.952;2023-06-19T00:19:21;21.87;77.64
51305;HTU21D;37392;50.964;6.952;2023-06-19T00:21:47;21.85;77.68
51305;HTU21D;37392;50.964;6.952;2023-06-19T00:24:13;21.87;77.71
51305;HTU21D;37392;50.964;6.952;2023-06-19T00:26:38;21.84;77.82
51305;HTU21D;37392;50.964;6.952;2023-06-19T00:29:05;21.83;77.89
51305;HTU21D;37392;50.964;6.952;2023-06-19T00:31:31;21.82;77.95
51305;HTU21D;37392;50.964;6.952;2023-06-19T00:33:57;21.78;78.18
51305;HTU21D;37392;50.964;6.952;2023-06-19T00:36:23;21.72;78.35
51305;HTU21D;37392;50.964;6.952;2023-06-19T00:38:51;21.66;78.78
51305;HTU21D;37392;50.964;6.952;2023-06-19T00:41:17;21.62;79.21
51305;HTU21D;37392;50.964;6.952;2023-06-19T00:43:43;21.53;79.81
51305;HTU21D;37392;50.964;6.952;2023-06-19T00:46:10;21.47;80.40
51305;HTU21D;37392;50.964;6.952;2023-06-19T00:48:36;21.44;80.97
51305;HTU21D;37392;50.964;6.952;2023-06-19T00:51:02;21.49;80.93
51305;HTU21D;37392;50.964;6.952;2023-06-19T00:53:28;21.48;80.93
51305;HTU21D;37392;50.964;6.952;2023-06-19T00:55:56;21.51;80.85
51305;HTU21D;37392;50.964;6.952;2023-06-19T00:58:22;21.58;80.67
51305;HTU21D;37392;50.964;6.952;2023-06-19T01:00:48;21.69;80.10
51305;HTU21D;37392;50.964;6.952;2023-06-19T01:03:15;21.79;79.69
51305;HTU21D;37392;50.964;6.952;2023-06-19T01:05:42;21.85;79.30
51305;HTU21D;37392;50.964;6.952;2023-06-19T01:10:39;21.97;79.05
51305;HTU21D;37392;50.964;6.952;2023-06-19T01:13:14;22.01;78.62
51305;HTU21D;37392;50.964;6.952;2023-06-19T01:15:47;22.03;78.63
51305;HTU21D;37392;50.964;6.952;2023-06-19T01:18:13;21.99;78.53
51305;HTU21D;37392;50.964;6.952;2023-06-19T01:20:40;21.98;78.38
51305;HTU21D;37392;50.964;6.952;2023-06-19T01:23:09;21.95;78.42
51305;HTU21D;37392;50.964;6.952;2023-06-19T01:25:36;21.88;78.56
51305;HTU21D;37392;50.964;6.952;2023-06-19T01:28:03;21.76;78.93
51305;HTU21D;37392;50.964;6.952;2023-06-19T01:30:31;21.63;79.32
51305;HTU21D;37392;50.964;6.952;2023-06-19T01:33:01;21.53;80.05
51305;HTU21D;37392;50.964;6.952;2023-06-19T01:35:36;21.47;80.55
51305;HTU21D;37392;50.964;6.952;2023-06-19T01:38:04;21.37;80.98
51305;HTU21D;37392;50.964;6.952;2023-06-19T01:40:31;21.35;81.42
51305;HTU21D;37392;50.964;6.952;2023-06-19T01:42:59;21.38;81.89
51305;HTU21D;37392;50.964;6.952;2023-06-19T01:45:27;21.37;82.06
51305;HTU21D;37392;50.964;6.952;2023-06-19T01:47:54;21.39;82.26
51305;HTU21D;37392;50.964;6.952;2023-06-19T01:50:21;21.43;82.21
51305;HTU21D;37392;50.964;6.952;2023-06-19T01:52:47;21.40;82.26
51305;HTU21D;37392;50.964;6.952;2023-06-19T01:55:14;21.39;82.47
51305;HTU21D;37392;50.964;6.952;2023-06-19T01:57:39;21.43;82.57
51305;HTU21D;37392;50.964;6.952;2023-06-19T02:00:06;21.37;82.68
51305;HTU21D;37392;50.964;6.952;2023-06-19T02:02:36;21.34;82.85
51305;HTU21D;37392;50.964;6.952;2023-06-19T02:05:02;21.33;83.10
51305;HTU21D;37392;50.964;6.952;2023-06-19T02:07:27;21.31;83.33
51305;HTU21D;37392;50.964;6.952;2023-06-19T02:09:53;21.34;83.38
51305;HTU21D;37392;50.964;6.952;2023-06-19T02:12:19;21.36;83.30
51305;HTU21D;37392;50.964;6.952;2023-06-19T02:14:44;21.40;83.20
51305;HTU21D;37392;50.964;6.952;2023-06-19T02:17:10;21.45;83.04
51305;HTU21D;37392;50.964;6.952;2023-06-19T02:19:36;21.48;83.04
51305;HTU21D;37392;50.964;6.952;2023-06-19T02:22:01;21.52;82.84
51305;HTU21D;37392;50.964;6.952;2023-06-19T02:24:27;21.51;82.92
51305;HTU21D;37392;50.964;6.952;2023-06-19T02:26:53;21.52;82.87
51305;HTU21D;37392;50.964;6.952;2023-06-19T02:29:18;21.57;82.71
51305;HTU21D;37392;50.964;6.952;2023-06-19T02:31:44;21.58;82.71
51305;HTU21D;37392;50.964;6.952;2023-06-19T02:34:10;21.54;82.69
51305;HTU21D;37392;50.964;6.952;2023-06-19T02:36:35;21.55;82.68
51305;HTU21D;37392;50.964;6.952;2023-06-19T02:39:04;21.57;82.61
51305;HTU21D;37392;50.964;6.952;2023-06-19T02:41:30;21.58;82.39
51305;HTU21D;37392;50.964;6.952;2023-06-19T02:43:55;21.62;82.53
51305;HTU21D;37392;50.964;6.952;2023-06-19T02:46:21;21.63;82.50
51305;HTU21D;37392;50.964;6.952;2023-06-19T02:48:46;21.64;82.52
51305;HTU21D;37392;50.964;6.952;2023-06-19T02:51:12;21.64;82.36
51305;HTU21D;37392;50.964;6.952;2023-06-19T02:53:37;21.62;82.40
51305;HTU21D;37392;50.964;6.952;2023-06-19T02:56:03;21.61;82.47
51305;HTU21D;37392;50.964;6.952;2023-06-19T02:58:29;21.55;82.44
51305;HTU21D;37392;50.964;6.952;2023-06-19T03:00:55;21.54;82.51
51305;HTU21D;37392;50.964;6.952;2023-06-19T03:03:20;21.51;82.81
51305;HTU21D;37392;50.964;6.952;2023-06-19T03:05:48;21.49;83.10
51305;HTU21D;37392;50.964;6.952;2023-06-19T03:08:13;21.48;83.04
51305;HTU21D;37392;50.964;6.952;2023-06-19T03:10:39;21.45;83.08
51305;HTU21D;37392;50.964;6.952;2023-06-19T03:13:04;21.42;83.03
51305;HTU21D;37392;50.964;6.952;2023-06-19T03:15:30;21.34;82.96
51305;HTU21D;37392;50.964;6.952;2023-06-19T03:17:55;21.24;82.98
51305;HTU21D;37392;50.964;6.952;2023-06-19T03:20:21;21.13;83.39
51305;HTU21D;37392;50.964;6.952;2023-06-19T03:22:46;20.96;83.21
51305;HTU21D;37392;50.964;6.952;2023-06-19T03:25:13;20.85;83.47
51305;HTU21D;37392;50.964;6.952;2023-06-19T03:27:38;20.70;83.74
51305;HTU21D;37392;50.964;6.952;2023-06-19T03:30:05;20.59;84.13
51305;HTU21D;37392;50.964;6.952;2023-06-19T03:32:35;20.54;84.30
51305;HTU21D;37392;50.964;6.952;2023-06-19T03:35:01;20.47;84.35
51305;HTU21D;37392;50.964;6.952;2023-06-19T03:37:27;20.47;84.39
51305;HTU21D;37392;50.964;6.952;2023-06-19T03:39:52;20.47;84.18
51305;HTU21D;37392;50.964;6.952;2023-06-19T03:42:18;20.47;83.84
51305;HTU21D;37392;50.964;6.952;2023-06-19T03:44:43;20.47;83.58
51305;HTU21D;37392;50.964;6.952;2023-06-19T03:47:09;20.54;83.51
51305;HTU21D;37392;50.964;6.952;2023-06-19T03:49:34;20.59;83.36
51305;HTU21D;37392;50.964;6.952;2023-06-19T03:52:00;20.69;83.20
51305;HTU21D;37392;50.964;6.952;2023-06-19T03:54:26;20.76;82.56
51305;HTU21D;37392;50.964;6.952;2023-06-19T03:56:52;20.81;82.13
51305;HTU21D;37392;50.964;6.952;2023-06-19T03:59:18;20.93;81.22
51305;HTU21D;37392;50.964;6.952;2023-06-19T04:01:43;21.03;80.94
51305;HTU21D;37392;50.964;6.952;2023-06-19T04:04:09;21.16;80.05
51305;HTU21D;37392;50.964;6.952;2023-06-19T04:06:34;21.21;79.09
51305;HTU21D;37392;50.964;6.952;2023-06-19T04:09:00;21.31;78.57
51305;HTU21D;37392;50.964;6.952;2023-06-19T04:11:25;21.42;78.12
51305;HTU21D;37392;50.964;6.952;2023-06-19T04:13:51;21.64;77.71
51305;HTU21D;37392;50.964;6.952;2023-06-19T04:16:17;21.81;77.14
51305;HTU21D;37392;50.964;6.952;2023-06-19T04:18:42;22.21;76.21
51305;HTU21D;37392;50.964;6.952;2023-06-19T04:21:08;22.68;74.92
51305;HTU21D;37392;50.964;6.952;2023-06-19T04:23:33;22.97;73.75
51305;HTU21D;37392;50.964;6.952;2023-06-19T04:25:59;23.21;73.06
51305;HTU21D;37392;50.964;6.952;2023-06-19T04:28:24;23.24;72.77
51305;HTU21D;37392;50.964;6.952;2023-06-19T04:30:51;23.11;73.67
51305;HTU21D;37392;50.964;6.952;2023-06-19T04:33:29;23.00;74.06
51305;HTU21D;37392;50.964;6.952;2023-06-19T04:35:55;23.00;74.12
51305;HTU21D;37392;50.964;6.952;2023-06-19T04:38:21;22.96;74.35
51305;HTU21D;37392;50.964;6.952;2023-06-19T04:40:50;22.91;75.00
51305;HTU21D;37392;50.964;6.952;2023-06-19T04:43:17;22.86;74.85
51305;HTU21D;37392;50.964;6.952;2023-06-19T04:45:43;22.79;75.44
51305;HTU21D;37392;50.964;6.952;2023-06-19T04:48:08;22.69;75.92
51305;HTU21D;37392;50.964;6.952;2023-06-19T04:50:34;22.68;76.37
51305;HTU21D;37392;50.964;6.952;2023-06-19T04:53:00;22.72;76.59
51305;HTU21D;37392;50.964;6.952;2023-06-19T04:55:25;22.77;76.53
51305;HTU21D;37392;50.964;6.952;2023-06-19T04:57:51;22.77;76.37
51305;HTU21D;37392;50.964;6.952;2023-06-19T05:00:17;22.78;76.68
51305;HTU21D;37392;50.964;6.952;2023-06-19T05:02:45;22.81;76.53
51305;HTU21D;37392;50.964;6.952;2023-06-19T05:05:13;23.01;76.45
51305;HTU21D;37392;50.964;6.952;2023-06-19T05:07:39;23.30;75.54
51305;HTU21D;37392;50.964;6.952;2023-06-19T05:10:05;23.62;74.65
51305;HTU21D;37392;50.964;6.952;2023-06-19T05:12:34;23.83;73.86
51305;HTU21D;37392;50.964;6.952;2023-06-19T05:15:01;23.90;73.31
51305;HTU21D;37392;50.964;6.952;2023-06-19T05:17:27;23.86;73.04
51305;HTU21D;37392;50.964;6.952;2023-06-19T05:19:52;23.74;73.38
51305;HTU21D;37392;50.964;6.952;2023-06-19T05:22:18;23.71;73.50
51305;HTU21D;37392;50.964;6.952;2023-06-19T05:24:49;23.79;73.53
51305;HTU21D;37392;50.964;6.952;2023-06-19T05:27:15;23.96;73.06
51305;HTU21D;37392;50.964;6.952;2023-06-19T05:29:41;24.21;72.38
51305;HTU21D;37392;50.964;6.952;2023-06-19T05:32:06;24.46;71.72
51305;HTU21D;37392;50.964;6.952;2023-06-19T05:34:32;24.99;70.96
51305;HTU21D;37392;50.964;6.952;2023-06-19T05:36:58;26.42;67.27
51305;HTU21D;37392;50.964;6.952;2023-06-19T05:39:26;27.89;63.24
51305;HTU21D;37392;50.964;6.952;2023-06-19T05:41:51;29.13;59.06
51305;HTU21D;37392;50.964;6.952;2023-06-19T05:44:17;29.76;56.76
51305;HTU21D;37392;50.964;6.952;2023-06-19T05:46:44;30.71;55.61
51305;HTU21D;37392;50.964;6.952;2023-06-19T05:49:09;31.57;52.63
51305;HTU21D;37392;50.964;6.952;2023-06-19T05:51:35;32.23;50.55
51305;HTU21D;37392;50.964;6.952;2023-06-19T05:54:00;32.42;49.56
51305;HTU21D;37392;50.964;6.952;2023-06-19T05:56:32;31.98;49.78
51305;HTU21D;37392;50.964;6.952;2023-06-19T05:58:59;32.28;49.47
51305;HTU21D;37392;50.964;6.952;2023-06-19T06:01:28;32.82;47.96
51305;HTU21D;37392;50.964;6.952;2023-06-19T06:03:55;33.56;46.28
51305;HTU21D;37392;50.964;6.952;2023-06-19T06:06:24;33.92;45.26
51305;HTU21D;37392;50.964;6.952;2023-06-19T06:08:51;34.44;44.10
51305;HTU21D;37392;50.964;6.952;2023-06-19T06:11:17;34.55;43.74
51305;HTU21D;37392;50.964;6.952;2023-06-19T06:13:43;34.49;43.83
51305;HTU21D;37392;50.964;6.952;2023-06-19T06:16:08;34.63;43.76
51305;HTU21D;37392;50.964;6.952;2023-06-19T06:18:34;35.01;42.84
51305;HTU21D;37392;50.964;6.952;2023-06-19T06:20:59;35.53;42.03
51305;HTU21D;37392;50.964;6.952;2023-06-19T06:23:25;35.78;41.22
51305;HTU21D;37392;50.964;6.952;2023-06-19T06:25:51;35.94;40.65
51305;HTU21D;37392;50.964;6.952;2023-06-19T06:28:16;36.11;39.91
51305;HTU21D;37392;50.964;6.952;2023-06-19T06:30:43;35.38;40.85
51305;HTU21D;37392;50.964;6.952;2023-06-19T06:33:09;34.40;42.50
51305;HTU21D;37392;50.964;6.952;2023-06-19T06:35:34;33.55;44.12
51305;HTU21D;37392;50.964;6.952;2023-06-19T06:38:01;32.84;45.66
51305;HTU21D;37392;50.964;6.952;2023-06-19T06:40:27;32.32;46.46
51305;HTU21D;37392;50.964;6.952;2023-06-19T06:42:53;31.70;47.86
51305;HTU21D;37392;50.964;6.952;2023-06-19T06:45:19;31.49;48.61
51305;HTU21D;37392;50.964;6.952;2023-06-19T06:47:44;31.26;49.23
51305;HTU21D;37392;50.964;6.952;2023-06-19T06:50:10;31.58;49.54
51305;HTU21D;37392;50.964;6.952;2023-06-19T06:52:36;32.72;47.09
51305;HTU21D;37392;50.964;6.952;2023-06-19T06:55:01;34.41;44.34
51305;HTU21D;37392;50.964;6.952;2023-06-19T06:57:27;35.82;41.56
51305;HTU21D;37392;50.964;6.952;2023-06-19T06:59:53;36.45;39.79
51305;HTU21D;37392;50.964;6.952;2023-06-19T07:02:18;36.42;39.46
51305;HTU21D;37392;50.964;6.952;2023-06-19T07:04:44;35.21;40.35
51305;HTU21D;37392;50.964;6.952;2023-06-19T07:07:09;34.66;41.47
51305;HTU21D;37392;50.964;6.952;2023-06-19T07:09:35;34.30;41.87
51305;HTU21D;37392;50.964;6.952;2023-06-19T07:12:00;34.39;42.10
51305;HTU21D;37392;50.964;6.952;2023-06-19T07:14:29;35.07;41.45
51305;HTU21D;37392;50.964;6.952;2023-06-19T07:16:55;35.42;40.07
51305;HTU21D;37392;50.964;6.952;2023-06-19T07:19:20;35.50;39.89
51305;HTU21D;37392;50.964;6.952;2023-06-19T07:21:48;35.28;40.00
51305;HTU21D;37392;50.964;6.952;2023-06-19T07:24:17;35.10;40.29
51305;HTU21D;37392;50.964;6.952;2023-06-19T07:26:43;35.38;40.11
51305;HTU21D;37392;50.964;6.952;2023-06-19T07:29:08;35.81;39.13
51305;HTU21D;37392;50.964;6.952;2023-06-19T07:31:34;35.78;39.28
51305;HTU21D;37392;50.964;6.952;2023-06-19T07:33:59;36.25;38.60
51305;HTU21D;37392;50.964;6.952;2023-06-19T07:36:25;36.63;38.05
51305;HTU21D;37392;50.964;6.952;2023-06-19T07:38:51;36.59;37.86
51305;HTU21D;37392;50.964;6.952;2023-06-19T07:41:17;36.07;38.53
51305;HTU21D;37392;50.964;6.952;2023-06-19T07:43:43;35.35;39.69
51305;HTU21D;37392;50.964;6.952;2023-06-19T07:46:09;34.90;40.62
51305;HTU21D;37392;50.964;6.952;2023-06-19T07:48:35;34.35;41.58
51305;HTU21D;37392;50.964;6.952;2023-06-19T07:51:00;33.81;42.31
51305;HTU21D;37392;50.964;6.952;2023-06-19T07:53:26;33.36;43.29
51305;HTU21D;37392;50.964;6.952;2023-06-19T07:55:52;33.21;43.71
51305;HTU21D;37392;50.964;6.952;2023-06-19T07:58:17;32.93;44.33
51305;HTU21D;37392;50.964;6.952;2023-06-19T08:00:43;32.56;45.26
51305;HTU21D;37392;50.964;6.952;2023-06-19T08:03:09;32.46;45.36
51305;HTU21D;37392;50.964;6.952;2023-06-19T08:05:34;32.44;45.71
51305;HTU21D;37392;50.964;6.952;2023-06-19T08:08:00;32.58;45.48
51305;HTU21D;37392;50.964;6.952;2023-06-19T08:10:27;32.64;45.41
51305;HTU21D;37392;50.964;6.952;2023-06-19T08:12:52;32.93;45.32
51305;HTU21D;37392;50.964;6.952;2023-06-19T08:15:18;33.29;44.69
51305;HTU21D;37392;50.964;6.952;2023-06-19T08:17:44;33.28;44.85
51305;HTU21D;37392;50.964;6.952;2023-06-19T08:20:10;33.20;45.01
51305;HTU21D;37392;50.964;6.952;2023-06-19T08:22:36;33.76;44.32
51305;HTU21D;37392;50.964;6.952;2023-06-19T08:25:02;34.44;43.00
51305;HTU21D;37392;50.964;6.952;2023-06-19T08:27:28;35.14;42.10
51305;HTU21D;37392;50.964;6.952;2023-06-19T08:29:54;36.17;40.36
51305;HTU21D;37392;50.964;6.952;2023-06-19T08:32:20;37.18;38.54
51305;HTU21D;37392;50.964;6.952;2023-06-19T08:34:46;37.88;37.53
51305;HTU21D;37392;50.964;6.952;2023-06-19T08:37:11;37.44;37.82
51305;HTU21D;37392;50.964;6.952;2023-06-19T08:39:37;37.38;37.82
51305;HTU21D;37392;50.964;6.952;2023-06-19T08:42:08;37.92;37.20
51305;HTU21D;37392;50.964;6.952;2023-06-19T08:44:37;38.51;36.20
51305;HTU21D;37392;50.964;6.952;2023-06-19T08:47:03;39.38;34.97
51305;HTU21D;37392;50.964;6.952;2023-06-19T08:49:30;39.80;33.74
51305;HTU21D;37392;50.964;6.952;2023-06-19T08:51:56;39.38;34.20
51305;HTU21D;37392;50.964;6.952;2023-06-19T08:54:22;39.42;33.54
51305;HTU21D;37392;50.964;6.952;2023-06-19T08:56:50;39.58;33.34
51305;HTU21D;37392;50.964;6.952;2023-06-19T08:59:19;39.64;33.28
51305;HTU21D;37392;50.964;6.952;2023-06-19T09:01:52;39.63;33.12
51305;HTU21D;37392;50.964;6.952;2023-06-19T09:04:25;39.64;33.19
51305;HTU21D;37392;50.964;6.952;2023-06-19T09:07:00;39.71;33.22
51305;HTU21D;37392;50.964;6.952;2023-06-19T09:09:27;40.47;32.61
51305;HTU21D;37392;50.964;6.952;2023-06-19T09:12:07;41.24;31.25
51305;HTU21D;37392;50.964;6.952;2023-06-19T09:14:38;40.93;31.28
51305;HTU21D;37392;50.964;6.952;2023-06-19T09:17:06;40.43;32.06
51305;HTU21D;37392;50.964;6.952;2023-06-19T09:19:34;40.03;32.09
51305;HTU21D;37392;50.964;6.952;2023-06-19T09:22:07;39.36;33.09
51305;HTU21D;37392;50.964;6.952;2023-06-19T09:24:40;39.20;33.48
51305;HTU21D;37392;50.964;6.952;2023-06-19T09:27:14;39.37;33.54
51305;HTU21D;37392;50.964;6.952;2023-06-19T09:29:48;39.23;33.76
51305;HTU21D;37392;50.964;6.952;2023-06-19T09:32:20;39.26;33.96
51305;HTU21D;37392;50.964;6.952;2023-06-19T09:34:48;39.41;33.46
51305;HTU21D;37392;50.964;6.952;2023-06-19T09:37:15;40.17;32.54
51305;HTU21D;37392;50.964;6.952;2023-06-19T09:39:41;40.17;32.37
51305;HTU21D;37392;50.964;6.952;2023-06-19T09:42:07;40.01;32.73
51305;HTU21D;37392;50.964;6.952;2023-06-19T09:44:40;40.32;32.80
51305;HTU21D;37392;50.964;6.952;2023-06-19T09:47:14;40.99;32.25
51305;HTU21D;37392;50.964;6.952;2023-06-19T09:49:48;42.03;30.74
51305;HTU21D;37392;50.964;6.952;2023-06-19T09:52:16;42.59;29.84
51305;HTU21D;37392;50.964;6.952;2023-06-19T09:54:43;42.72;29.35
51305;HTU21D;37392;50.964;6.952;2023-06-19T09:57:11;42.87;28.95
51305;HTU21D;37392;50.964;6.952;2023-06-19T09:59:39;43.26;28.52
51305;HTU21D;37392;50.964;6.952;2023-06-19T10:02:06;43.41;28.50
51305;HTU21D;37392;50.964;6.952;2023-06-19T10:04:48;43.58;28.09
51305;HTU21D;37392;50.964;6.952;2023-06-19T10:07:19;44.05;27.53
51305;HTU21D;37392;50.964;6.952;2023-06-19T10:10:24;44.31;26.76
51305;HTU21D;37392;50.964;6.952;2023-06-19T10:12:58;44.55;26.70
51305;HTU21D;37392;50.964;6.952;2023-06-19T10:15:28;44.57;26.84
51305;HTU21D;37392;50.964;6.952;2023-06-19T10:18:05;44.61;26.58
51305;HTU21D;37392;50.964;6.952;2023-06-19T10:20:37;44.53;27.28
51305;HTU21D;37392;50.964;6.952;2023-06-19T10:23:07;44.59;26.91
51305;HTU21D;37392;50.964;6.952;2023-06-19T10:25:36;44.80;26.57
51305;HTU21D;37392;50.964;6.952;2023-06-19T10:28:04;45.04;26.10
51305;HTU21D;37392;50.964;6.952;2023-06-19T10:30:33;45.55;25.88
51305;HTU21D;37392;50.964;6.952;2023-06-19T10:33:02;45.46;25.78
51305;HTU21D;37392;50.964;6.952;2023-06-19T10:35:37;45.51;25.52
51305;HTU21D;37392;50.964;6.952;2023-06-19T10:38:05;45.31;25.56
51305;HTU21D;37392;50.964;6.952;2023-06-19T10:40:31;45.39;25.13
51305;HTU21D;37392;50.964;6.952;2023-06-19T10:42:56;45.55;25.29
51305;HTU21D;37392;50.964;6.952;2023-06-19T10:45:22;45.58;25.17
51305;HTU21D;37392;50.964;6.952;2023-06-19T10:47:54;45.76;24.90
51305;HTU21D;37392;50.964;6.952;2023-06-19T10:50:21;45.99;24.61
51305;HTU21D;37392;50.964;6.952;2023-06-19T10:52:48;45.55;24.78
51305;HTU21D;37392;50.964;6.952;2023-06-19T10:55:14;45.27;24.91
51305;HTU21D;37392;50.964;6.952;2023-06-19T10:57:43;44.45;25.08
51305;HTU21D;37392;50.964;6.952;2023-06-19T11:00:10;44.00;26.05
51305;HTU21D;37392;50.964;6.952;2023-06-19T11:02:43;44.32;26.01
51305;HTU21D;37392;50.964;6.952;2023-06-19T11:05:10;44.46;25.78
51305;HTU21D;37392;50.964;6.952;2023-06-19T11:07:36;44.57;26.00
51305;HTU21D;37392;50.964;6.952;2023-06-19T11:10:03;44.23;26.29
51305;HTU21D;37392;50.964;6.952;2023-06-19T11:12:31;43.97;26.37
51305;HTU21D;37392;50.964;6.952;2023-06-19T11:14:58;44.38;25.88
51305;HTU21D;37392;50.964;6.952;2023-06-19T11:17:24;44.39;25.63
51305;HTU21D;37392;50.964;6.952;2023-06-19T11:19:50;44.42;25.63
51305;HTU21D;37392;50.964;6.952;2023-06-19T11:22:16;44.05;25.75
51305;HTU21D;37392;50.964;6.952;2023-06-19T11:24:48;42.53;26.97
51305;HTU21D;37392;50.964;6.952;2023-06-19T11:27:21;41.98;28.17
51305;HTU21D;37392;50.964;6.952;2023-06-19T11:29:58;41.89;28.37
51305;HTU21D;37392;50.964;6.952;2023-06-19T11:32:24;41.93;28.23
51305;HTU21D;37392;50.964;6.952;2023-06-19T11:34:56;41.29;29.10
51305;HTU21D;37392;50.964;6.952;2023-06-19T11:37:22;41.05;29.48
51305;HTU21D;37392;50.964;6.952;2023-06-19T11:39:49;40.86;29.64
51305;HTU21D;37392;50.964;6.952;2023-06-19T11:42:18;40.38;29.74
51305;HTU21D;37392;50.964;6.952;2023-06-19T11:44:57;38.93;31.63
51305;HTU21D;37392;50.964;6.952;2023-06-19T11:47:30;38.64;31.77
51305;HTU21D;37392;50.964;6.952;2023-06-19T11:49:56;38.61;31.51
51305;HTU21D;37392;50.964;6.952;2023-06-19T11:52:21;38.35;31.82
51305;HTU21D;37392;50.964;6.952;2023-06-19T11:54:47;37.99;32.37
51305;HTU21D;37392;50.964;6.952;2023-06-19T11:57:12;37.40;32.82
51305;HTU21D;37392;50.964;6.952;2023-06-19T11:59:41;36.74;34.02
51305;HTU21D;37392;50.964;6.952;2023-06-19T12:02:08;36.61;34.40
51305;HTU21D;37392;50.964;6.952;2023-06-19T12:04:34;36.44;34.54
51305;HTU21D;37392;50.964;6.952;2023-06-19T12:07:01;36.09;34.93
51305;HTU21D;37392;50.964;6.952;2023-06-19T12:09:27;35.77;35.45
51305;HTU21D;37392;50.964;6.952;2023-06-19T12:11:53;34.91;36.59
51305;HTU21D;37392;50.964;6.952;2023-06-19T12:14:19;34.66;37.21
51305;HTU21D;37392;50.964;6.952;2023-06-19T12:16:46;34.52;37.17
51305;HTU21D;37392;50.964;6.952;2023-06-19T12:19:13;34.21;37.37
51305;HTU21D;37392;50.964;6.952;2023-06-19T12:21:39;34.06;37.97
51305;HTU21D;37392;50.964;6.952;2023-06-19T12:24:05;34.00;38.07
51305;HTU21D;37392;50.964;6.952;2023-06-19T12:26:32;34.20;37.62
51305;HTU21D;37392;50.964;6.952;2023-06-19T12:29:02;34.33;37.29
51305;HTU21D;37392;50.964;6.952;2023-06-19T12:31:29;34.19;37.49
51305;HTU21D;37392;50.964;6.952;2023-06-19T12:33:55;34.07;37.21
51305;HTU21D;37392;50.964;6.952;2023-06-19T12:36:20;34.01;37.40
51305;HTU21D;37392;50.964;6.952;2023-06-19T12:38:46;34.26;37.11
51305;HTU21D;37392;50.964;6.952;2023-06-19T12:41:13;34.23;37.12
51305;HTU21D;37392;50.964;6.952;2023-06-19T12:43:38;34.25;37.28
51305;HTU21D;37392;50.964;6.952;2023-06-19T12:46:04;34.61;36.59
51305;HTU21D;37392;50.964;6.952;2023-06-19T12:48:29;35.00;35.65
51305;HTU21D;37392;50.964;6.952;2023-06-19T12:50:55;35.00;35.23
51305;HTU21D;37392;50.964;6.952;2023-06-19T12:53:21;35.05;35.19
51305;HTU21D;37392;50.964;6.952;2023-06-19T12:55:52;35.01;35.28
51305;HTU21D;37392;50.964;6.952;2023-06-19T12:58:18;34.85;35.54
51305;HTU21D;37392;50.964;6.952;2023-06-19T13:00:44;34.92;35.63
51305;HTU21D;37392;50.964;6.952;2023-06-19T13:03:09;35.01;36.16
51305;HTU21D;37392;50.964;6.952;2023-06-19T13:05:35;35.12;35.81
51305;HTU21D;37392;50.964;6.952;2023-06-19T13:08:01;35.22;35.34
51305;HTU21D;37392;50.964;6.952;2023-06-19T13:10:27;35.19;35.47
51305;HTU21D;37392;50.964;6.952;2023-06-19T13:12:52;35.24;35.56
51305;HTU21D;37392;50.964;6.952;2023-06-19T13:15:18;35.20;35.89
51305;HTU21D;37392;50.964;6.952;2023-06-19T13:17:43;34.95;36.59
51305;HTU21D;37392;50.964;6.952;2023-06-19T13:20:09;35.08;36.51
51305;HTU21D;37392;50.964;6.952;2023-06-19T13:22:35;35.14;35.99
51305;HTU21D;37392;50.964;6.952;2023-06-19T13:25:01;35.06;35.66
51305;HTU21D;37392;50.964;6.952;2023-06-19T13:27:27;34.88;36.07
51305;HTU21D;37392;50.964;6.952;2023-06-19T13:29:54;34.33;36.85
51305;HTU21D;37392;50.964;6.952;2023-06-19T13:32:20;34.04;37.67
51305;HTU21D;37392;50.964;6.952;2023-06-19T13:34:45;33.89;38.33
51305;HTU21D;37392;50.964;6.952;2023-06-19T13:37:11;34.03;38.56
51305;HTU21D;37392;50.964;6.952;2023-06-19T13:39:36;34.06;38.52
51305;HTU21D;37392;50.964;6.952;2023-06-19T13:42:03;34.05;38.54
51305;HTU21D;37392;50.964;6.952;2023-06-19T13:44:29;34.00;36.92
51305;HTU21D;37392;50.964;6.952;2023-06-19T13:46:54;33.48;37.57
51305;HTU21D;37392;50.964;6.952;2023-06-19T13:49:20;33.42;38.35
51305;HTU21D;37392;50.964;6.952;2023-06-19T13:51:47;33.55;38.85
51305;HTU21D;37392;50.964;6.952;2023-06-19T13:54:13;33.50;39.23
51305;HTU21D;37392;50.964;6.952;2023-06-19T13:56:39;33.55;39.49
51305;HTU21D;37392;50.964;6.952;2023-06-19T13:59:06;33.13;38.74
51305;HTU21D;37392;50.964;6.952;2023-06-19T14:01:32;32.85;39.71
51305;HTU21D;37392;50.964;6.952;2023-06-19T14:03:58;32.78;39.54
51305;HTU21D;37392;50.964;6.952;2023-06-19T14:06:24;32.75;40.04
51305;HTU21D;37392;50.964;6.952;2023-06-19T14:08:50;32.69;39.04
51305;HTU21D;37392;50.964;6.952;2023-06-19T14:11:17;32.59;39.62
51305;HTU21D;37392;50.964;6.952;2023-06-19T14:13:44;32.48;39.80
51305;HTU21D;37392;50.964;6.952;2023-06-19T14:16:09;32.34;39.88
51305;HTU21D;37392;50.964;6.952;2023-06-19T14:18:35;32.18;40.50
51305;HTU21D;37392;50.964;6.952;2023-06-19T14:21:03;32.05;40.97
51305;HTU21D;37392;50.964;6.952;2023-06-19T14:23:29;31.89;40.99
51305;HTU21D;37392;50.964;6.952;2023-06-19T14:25:54;31.69;40.54
51305;HTU21D;37392;50.964;6.952;2023-06-19T14:28:20;31.25;41.83
51305;HTU21D;37392;50.964;6.952;2023-06-19T14:30:46;31.12;42.53
51305;HTU21D;37392;50.964;6.952;2023-06-19T14:33:12;31.21;42.97
51305;HTU21D;37392;50.964;6.952;2023-06-19T14:35:44;31.10;42.61
51305;HTU21D;37392;50.964;6.952;2023-06-19T14:38:12;31.12;42.74
51305;HTU21D;37392;50.964;6.952;2023-06-19T14:40:39;31.11;42.71
51305;HTU21D;37392;50.964;6.952;2023-06-19T14:43:04;31.16;41.99
51305;HTU21D;37392;50.964;6.952;2023-06-19T14:45:30;31.22;40.96
51305;HTU21D;37392;50.964;6.952;2023-06-19T14:47:56;31.30;40.58
51305;HTU21D;37392;50.964;6.952;2023-06-19T14:50:21;31.34;40.69
51305;HTU21D;37392;50.964;6.952;2023-06-19T14:52:47;31.36;41.10
51305;HTU21D;37392;50.964;6.952;2023-06-19T14:55:13;31.36;41.01
51305;HTU21D;37392;50.964;6.952;2023-06-19T14:57:38;31.29;41.44
51305;HTU21D;37392;50.964;6.952;2023-06-19T15:00:04;31.30;41.11
51305;HTU21D;37392;50.964;6.952;2023-06-19T15:02:31;31.12;41.38
51305;HTU21D;37392;50.964;6.952;2023-06-19T15:04:56;30.79;42.11
51305;HTU21D;37392;50.964;6.952;2023-06-19T15:07:22;30.56;42.39
51305;HTU21D;37392;50.964;6.952;2023-06-19T15:12:51;30.55;42.67
51305;HTU21D;37392;50.964;6.952;2023-06-19T15:15:17;30.59;43.13
51305;HTU21D;37392;50.964;6.952;2023-06-19T15:17:42;30.62;43.55
51305;HTU21D;37392;50.964;6.952;2023-06-19T15:20:08;30.70;42.69